createdAt,value
2023-05-14T00:00:42.821Z,4.43
2023-05-14T00:03:09.868Z,3.25
2023-05-14T00:05:36.817Z,3.92
2023-05-14T00:08:03.841Z,6.40
2023-05-14T00:10:30.631Z,5.45
2023-05-14T00:12:57.493Z,4.65
2023-05-14T00:15:24.410Z,5.35
2023-05-14T00:17:51.292Z,4.72
2023-05-14T00:20:18.297Z,3.45
2023-05-14T00:22:45.137Z,3.22
2023-05-14T00:25:11.947Z,4.47
2023-05-14T00:27:38.754Z,2.92
2023-05-14T00:30:07.178Z,3.67
2023-05-14T00:32:34.184Z,7.32
2023-05-14T00:35:01.091Z,3.25
2023-05-14T00:37:27.944Z,5.07
2023-05-14T00:39:54.785Z,4.85
2023-05-14T00:42:21.623Z,3.40
2023-05-14T00:44:48.451Z,4.97
2023-05-14T00:47:15.552Z,5.72
2023-05-14T00:49:42.870Z,4.47
2023-05-14T00:52:10.926Z,3.90
2023-05-14T00:54:37.826Z,4.95
2023-05-14T00:57:06.148Z,4.07
2023-05-14T00:59:33.078Z,7.93
2023-05-14T01:01:59.984Z,6.57
2023-05-14T01:04:26.937Z,3.97
2023-05-14T01:07:12.548Z,6.50
2023-05-14T01:10:01.443Z,2.88
2023-05-14T01:12:45.685Z,13.73
2023-05-14T01:15:16.652Z,4.57
2023-05-14T01:20:10.914Z,4.90
2023-05-14T01:22:37.975Z,4.03
2023-05-14T01:25:05.750Z,3.92
2023-05-14T01:27:51.427Z,3.80
2023-05-14T01:30:37.585Z,5.32
2023-05-14T01:33:10.385Z,3.35
2023-05-14T01:35:37.496Z,12.05
2023-05-14T01:38:06.975Z,3.33
2023-05-14T01:40:34.249Z,4.30
2023-05-14T01:43:01.481Z,9.35
2023-05-14T01:45:28.351Z,4.07
2023-05-14T01:47:55.256Z,2.55
2023-05-14T01:50:22.362Z,3.85
2023-05-14T01:52:49.506Z,5.57
2023-05-14T01:55:16.420Z,4.80
2023-05-14T01:57:43.260Z,6.85
2023-05-14T02:00:10.360Z,2.97
2023-05-14T02:02:43.064Z,3.45
2023-05-14T02:05:12.446Z,5.45
2023-05-14T02:07:39.274Z,3.63
2023-05-14T02:10:06.562Z,5.50
2023-05-14T02:12:33.849Z,2.83
2023-05-14T02:15:00.669Z,3.13
2023-05-14T02:17:28.065Z,8.43
2023-05-14T02:19:54.899Z,4.22
2023-05-14T02:22:21.745Z,4.32
2023-05-14T02:24:49.901Z,4.43
2023-05-14T02:27:18.247Z,4.88
2023-05-14T02:29:45.059Z,5.10
2023-05-14T02:32:11.940Z,8.52
2023-05-14T02:34:39.321Z,3.72
2023-05-14T02:37:06.458Z,3.97
2023-05-14T02:39:33.318Z,5.97
2023-05-14T02:42:00.108Z,3.55
2023-05-14T02:44:26.957Z,2.55
2023-05-14T02:46:53.827Z,2.95
2023-05-14T02:49:20.708Z,2.45
2023-05-14T02:51:47.504Z,3.70
2023-05-14T02:54:16.560Z,3.13
2023-05-14T02:56:43.434Z,3.80
2023-05-14T02:59:10.605Z,3.03
2023-05-14T03:01:37.869Z,4.10
2023-05-14T03:04:05.155Z,4.07
2023-05-14T03:06:32.187Z,9.48
2023-05-14T03:08:59.022Z,2.78
2023-05-14T03:11:26.039Z,3.10
2023-05-14T03:13:52.894Z,4.05
2023-05-14T03:16:19.679Z,7.57
2023-05-14T03:18:46.573Z,3.05
2023-05-14T03:21:13.703Z,4.00
2023-05-14T03:23:40.523Z,3.58
2023-05-14T03:26:07.368Z,13.73
2023-05-14T03:28:34.182Z,3.95
2023-05-14T03:31:01.367Z,7.05
2023-05-14T03:33:28.253Z,4.28
2023-05-14T03:35:55.056Z,3.88
2023-05-14T03:38:21.854Z,3.22
2023-05-14T03:40:49.210Z,6.95
2023-05-14T03:43:16.602Z,6.50
2023-05-14T03:45:44.064Z,3.15
2023-05-14T03:48:10.990Z,2.65
2023-05-14T03:50:38.215Z,2.63
2023-05-14T03:53:06.253Z,3.65
2023-05-14T03:55:33.115Z,3.90
2023-05-14T03:57:59.979Z,3.40
2023-05-14T04:00:27.322Z,5.53
2023-05-14T04:02:54.279Z,6.30
2023-05-14T04:05:24.256Z,5.90
2023-05-14T04:07:52.694Z,3.65
2023-05-14T04:10:20.432Z,29.38
2023-05-14T04:12:47.281Z,3.17
2023-05-14T04:15:14.179Z,4.53
2023-05-14T04:17:41.328Z,11.13
2023-05-14T04:20:08.413Z,11.15
2023-05-14T04:22:35.211Z,10.15
2023-05-14T04:25:01.965Z,3.83
2023-05-14T04:27:28.752Z,4.38
2023-05-14T04:29:55.542Z,6.22
2023-05-14T04:32:22.940Z,5.65
2023-05-14T04:34:49.822Z,8.05
2023-05-14T04:37:16.701Z,4.25
2023-05-14T04:39:43.804Z,2.70
2023-05-14T04:42:10.993Z,3.63
2023-05-14T04:44:38.062Z,2.10
2023-05-14T04:47:05.024Z,5.45
2023-05-14T04:49:32.090Z,5.05
2023-05-14T04:51:58.917Z,4.35
2023-05-14T04:54:25.797Z,3.25
2023-05-14T04:56:52.656Z,3.58
2023-05-14T04:59:19.401Z,4.80
2023-05-14T05:01:46.234Z,3.70
2023-05-14T05:04:13.220Z,5.78
2023-05-14T05:06:40.063Z,4.20
2023-05-14T05:09:06.950Z,4.05
2023-05-14T05:11:33.799Z,5.13
2023-05-14T05:14:00.662Z,6.97
2023-05-14T05:16:27.566Z,3.22
2023-05-14T05:18:54.443Z,6.57
2023-05-14T05:21:21.321Z,5.38
2023-05-14T05:23:48.182Z,6.40
2023-05-14T05:26:14.933Z,4.10
2023-05-14T05:28:41.714Z,4.07
2023-05-14T05:31:08.583Z,5.00
2023-05-14T05:33:35.639Z,8.43
2023-05-14T05:36:02.494Z,7.30
2023-05-14T05:38:29.259Z,5.70
2023-05-14T05:40:56.123Z,10.55
2023-05-14T05:43:22.877Z,4.75
2023-05-14T05:45:49.670Z,7.00
2023-05-14T05:48:16.727Z,4.75
2023-05-14T05:50:44.941Z,4.65
2023-05-14T05:53:12.606Z,4.43
2023-05-14T05:55:39.590Z,5.18
2023-05-14T05:58:06.353Z,8.85
2023-05-14T06:00:33.323Z,4.43
2023-05-14T06:03:00.306Z,13.55
2023-05-14T06:05:27.308Z,4.13
2023-05-14T06:07:54.466Z,5.35
2023-05-14T06:10:21.348Z,7.85
2023-05-14T06:12:48.286Z,5.40
2023-05-14T06:15:15.136Z,7.00
2023-05-14T06:17:42.141Z,6.15
2023-05-14T06:20:09.359Z,9.10
2023-05-14T06:22:36.197Z,6.03
2023-05-14T06:25:03.110Z,5.65
2023-05-14T06:27:29.903Z,5.22
2023-05-14T06:29:56.911Z,6.00
2023-05-14T06:32:23.870Z,7.20
2023-05-14T06:34:50.692Z,9.38
2023-05-14T06:37:17.561Z,5.78
2023-05-14T06:39:50.284Z,8.98
2023-05-14T06:42:17.337Z,6.10
2023-05-14T06:44:44.512Z,9.10
2023-05-14T06:47:11.309Z,14.82
2023-05-14T06:49:38.078Z,9.80
2023-05-14T06:52:05.158Z,10.80
2023-05-14T06:54:31.942Z,8.43
2023-05-14T06:56:58.746Z,10.60
2023-05-14T06:59:25.510Z,8.05
2023-05-14T07:01:52.400Z,11.43
2023-05-14T07:04:19.411Z,6.80
2023-05-14T07:06:46.309Z,7.57
2023-05-14T07:09:13.544Z,10.63
2023-05-14T07:11:40.340Z,7.63
2023-05-14T07:14:07.156Z,11.93
2023-05-14T07:16:34.053Z,8.15
2023-05-14T07:19:01.013Z,8.10
2023-05-14T07:21:28.656Z,9.40
2023-05-14T07:23:55.436Z,8.95
2023-05-14T07:26:24.626Z,14.85
2023-05-14T07:28:51.468Z,8.63
2023-05-14T07:31:18.395Z,11.95
2023-05-14T07:33:45.257Z,11.82
2023-05-14T07:36:12.131Z,14.75
2023-05-14T07:38:39.004Z,18.90
2023-05-14T07:41:05.824Z,10.55
2023-05-14T07:43:32.693Z,10.80
2023-05-14T07:45:59.538Z,18.15
2023-05-14T07:48:26.473Z,9.75
2023-05-14T07:50:54.035Z,7.53
2023-05-14T07:53:20.884Z,12.02
2023-05-14T07:55:49.079Z,9.20
2023-05-14T07:58:16.421Z,8.75
2023-05-14T08:00:43.192Z,7.80
2023-05-14T08:03:10.091Z,14.30
2023-05-14T08:05:37.117Z,10.90
2023-05-14T08:08:04.040Z,8.55
2023-05-14T08:10:31.117Z,11.52
2023-05-14T08:12:58.005Z,9.15
2023-05-14T08:15:27.551Z,9.65
2023-05-14T08:17:54.863Z,7.35
2023-05-14T08:20:22.000Z,8.80
2023-05-14T08:22:48.999Z,6.50
2023-05-14T08:25:15.987Z,9.93
2023-05-14T08:27:42.750Z,11.82
2023-05-14T08:30:09.800Z,12.13
2023-05-14T08:32:38.751Z,9.07
2023-05-14T08:35:05.930Z,7.88
2023-05-14T08:37:32.745Z,9.02
2023-05-14T08:39:59.611Z,8.98
2023-05-14T08:42:27.172Z,6.32
2023-05-14T08:44:56.757Z,5.70
2023-05-14T08:47:24.098Z,6.25
2023-05-14T08:50:04.714Z,5.47
2023-05-14T08:52:31.650Z,10.20
2023-05-14T08:55:00.463Z,8.70
2023-05-14T08:57:28.661Z,9.88
2023-05-14T08:59:56.011Z,7.15
2023-05-14T09:02:28.450Z,8.55
2023-05-14T09:04:59.284Z,13.00
2023-05-14T09:07:26.506Z,9.85
2023-05-14T09:09:53.693Z,12.70
2023-05-14T09:12:20.702Z,16.65
2023-05-14T09:14:48.036Z,13.75
2023-05-14T09:17:15.028Z,22.08
2023-05-14T09:19:42.530Z,11.38
2023-05-14T09:22:12.726Z,22.02
2023-05-14T09:24:39.684Z,25.02
2023-05-14T09:27:06.998Z,9.73
2023-05-14T09:29:34.039Z,21.88
2023-05-14T09:32:04.985Z,11.23
2023-05-14T09:34:32.753Z,7.88
2023-05-14T09:37:00.704Z,11.45
2023-05-14T09:39:27.821Z,9.73
2023-05-14T09:41:55.223Z,8.27
2023-05-14T09:44:22.162Z,8.98
2023-05-14T09:46:49.612Z,12.70
2023-05-14T09:49:16.699Z,17.30
2023-05-14T09:51:43.555Z,12.93
2023-05-14T09:54:10.748Z,9.52
2023-05-14T09:56:38.044Z,10.00
2023-05-14T09:59:04.829Z,8.50
2023-05-14T10:01:33.171Z,13.63
2023-05-14T10:04:00.710Z,15.20
2023-05-14T10:06:32.666Z,10.35
2023-05-14T10:09:04.390Z,7.43
2023-05-14T10:11:37.447Z,9.10
2023-05-14T10:14:33.863Z,15.63
2023-05-14T10:17:01.676Z,8.70
2023-05-14T10:19:32.543Z,10.57
2023-05-14T10:22:07.228Z,14.18
2023-05-14T10:24:34.372Z,8.10
2023-05-14T10:27:01.238Z,8.55
2023-05-14T10:29:35.233Z,6.53
2023-05-14T10:32:06.811Z,9.40
2023-05-14T10:34:38.510Z,13.00
2023-05-14T10:37:06.605Z,7.53
2023-05-14T10:39:46.832Z,9.63
2023-05-14T10:42:23.973Z,9.65
2023-05-14T10:44:57.135Z,11.52
2023-05-14T10:47:24.345Z,10.50
2023-05-14T10:49:53.384Z,9.68
2023-05-14T10:52:20.410Z,8.45
2023-05-14T10:54:51.550Z,11.48
2023-05-14T10:59:45.134Z,11.27
2023-05-14T11:02:22.046Z,10.00
2023-05-14T11:04:55.708Z,8.18
2023-05-14T11:07:24.276Z,8.50
2023-05-14T11:09:51.332Z,8.40
2023-05-14T11:12:18.528Z,9.48
2023-05-14T11:14:45.419Z,11.18
2023-05-14T11:17:12.458Z,7.07
2023-05-14T11:19:39.396Z,11.73
2023-05-14T11:22:06.809Z,7.38
2023-05-14T11:24:33.624Z,12.05
2023-05-14T11:27:00.566Z,13.10
2023-05-14T11:29:27.325Z,6.60
2023-05-14T11:31:54.595Z,12.50
2023-05-14T11:34:21.851Z,8.13
2023-05-14T11:36:49.462Z,10.40
2023-05-14T11:39:19.555Z,9.07
2023-05-14T11:41:46.397Z,8.63
2023-05-14T11:44:13.227Z,11.73
2023-05-14T11:46:40.056Z,8.10
2023-05-14T11:49:07.158Z,12.73
2023-05-14T11:51:33.884Z,9.07
2023-05-14T11:54:00.814Z,10.43
2023-05-14T11:56:27.576Z,10.23
2023-05-14T11:58:58.389Z,7.63
2023-05-14T12:01:25.425Z,18.60
2023-05-14T12:03:52.342Z,10.82
2023-05-14T12:06:19.454Z,8.15
2023-05-14T12:08:47.880Z,8.75
2023-05-14T12:11:14.745Z,8.05
2023-05-14T12:13:42.075Z,7.88
2023-05-14T12:16:09.056Z,8.95
2023-05-14T12:18:36.082Z,9.02
2023-05-14T12:21:04.048Z,10.15
2023-05-14T12:23:31.612Z,9.05
2023-05-14T12:26:02.586Z,15.15
2023-05-14T12:28:29.459Z,9.98
2023-05-14T12:30:57.590Z,9.32
2023-05-14T12:33:26.615Z,7.57
2023-05-14T12:36:17.589Z,6.57
2023-05-14T12:38:48.091Z,6.80
2023-05-14T12:41:14.943Z,8.25
2023-05-14T12:43:45.034Z,9.43
2023-05-14T12:46:11.830Z,10.20
2023-05-14T12:48:38.678Z,6.60
2023-05-14T12:51:05.653Z,6.40
2023-05-14T12:53:32.459Z,6.72
2023-05-14T12:55:59.286Z,11.02
2023-05-14T12:58:26.098Z,9.20
2023-05-14T13:00:52.909Z,10.68
2023-05-14T13:03:19.836Z,7.75
2023-05-14T13:05:46.628Z,7.38
2023-05-14T13:08:17.872Z,5.85
2023-05-14T13:10:44.976Z,7.68
2023-05-14T13:13:12.004Z,9.48
2023-05-14T13:15:38.822Z,7.53
2023-05-14T13:18:05.750Z,7.60
2023-05-14T13:20:33.692Z,9.20
2023-05-14T13:23:00.641Z,10.07
2023-05-14T13:25:27.816Z,8.00
2023-05-14T13:27:54.586Z,12.98
2023-05-14T13:30:21.354Z,10.90
2023-05-14T13:32:48.411Z,9.45
2023-05-14T13:35:15.247Z,9.93
2023-05-14T13:37:43.429Z,10.00
2023-05-14T13:40:10.687Z,9.52
2023-05-14T13:42:37.820Z,10.98
2023-05-14T13:45:04.923Z,15.77
2023-05-14T13:47:31.806Z,13.57
2023-05-14T13:49:58.601Z,10.52
2023-05-14T13:52:25.549Z,11.13
2023-05-14T13:54:53.171Z,7.80
2023-05-14T13:57:20.163Z,9.70
2023-05-14T13:59:47.197Z,9.73
2023-05-14T14:02:14.972Z,11.27
2023-05-14T14:04:41.708Z,10.05
2023-05-14T14:07:09.243Z,13.90
2023-05-14T14:09:37.124Z,10.07
2023-05-14T14:12:04.498Z,10.45
2023-05-14T14:14:31.490Z,13.00
2023-05-14T14:16:58.325Z,12.88
2023-05-14T14:19:25.232Z,11.02
2023-05-14T14:21:52.015Z,13.45
2023-05-14T14:24:18.881Z,16.33
2023-05-14T14:26:45.683Z,14.10
2023-05-14T14:29:12.549Z,13.32
2023-05-14T14:31:39.407Z,12.35
2023-05-14T14:34:06.314Z,14.23
2023-05-14T14:36:33.093Z,12.15
2023-05-14T14:38:59.881Z,15.75
2023-05-14T14:41:27.519Z,17.20
2023-05-14T14:43:54.359Z,16.08
2023-05-14T14:46:21.214Z,12.40
2023-05-14T14:48:48.082Z,10.57
2023-05-14T14:51:14.865Z,11.95
2023-05-14T14:53:41.709Z,11.32
2023-05-14T14:56:08.547Z,13.35
2023-05-14T14:58:35.412Z,17.95
2023-05-14T15:01:02.390Z,15.70
2023-05-14T15:03:29.547Z,14.57
2023-05-14T15:05:56.554Z,14.40
2023-05-14T15:08:29.696Z,17.38
2023-05-14T15:10:56.559Z,13.90
2023-05-14T15:13:24.351Z,14.85
2023-05-14T15:15:52.243Z,14.50
2023-05-14T15:18:19.226Z,15.38
2023-05-14T15:20:46.205Z,13.73
2023-05-14T15:23:13.138Z,20.42
2023-05-14T15:25:40.060Z,13.32
2023-05-14T15:28:07.817Z,15.02
2023-05-14T15:30:34.932Z,17.10
2023-05-14T15:33:01.960Z,17.05
2023-05-14T15:35:28.873Z,13.23
2023-05-14T15:37:57.491Z,13.60
2023-05-14T15:40:24.682Z,14.05
2023-05-14T15:42:51.694Z,15.82
2023-05-14T15:45:18.634Z,15.27
2023-05-14T15:47:45.638Z,16.60
2023-05-14T15:50:12.578Z,12.75
2023-05-14T15:52:39.817Z,27.73
2023-05-14T15:55:07.106Z,19.20
2023-05-14T15:57:34.530Z,15.65
2023-05-14T16:00:01.364Z,19.27
2023-05-14T16:02:33.362Z,16.02
2023-05-14T16:05:00.438Z,20.30
2023-05-14T16:07:27.425Z,17.95
2023-05-14T16:09:54.603Z,13.45
2023-05-14T16:12:21.673Z,15.90
2023-05-14T16:14:48.547Z,13.90
2023-05-14T16:17:15.360Z,17.27
2023-05-14T16:19:42.219Z,18.55
2023-05-14T16:22:09.083Z,16.02
2023-05-14T16:24:36.404Z,26.33
2023-05-14T16:27:04.003Z,20.90
2023-05-14T16:29:31.519Z,18.45
2023-05-14T16:31:58.705Z,17.73
2023-05-14T16:34:25.636Z,15.20
2023-05-14T16:36:54.506Z,14.55
2023-05-14T16:39:21.503Z,15.95
2023-05-14T16:41:48.344Z,17.45
2023-05-14T16:44:15.247Z,18.30
2023-05-14T16:46:42.204Z,19.08
2023-05-14T16:49:09.099Z,20.10
2023-05-14T16:51:37.503Z,17.77
2023-05-14T16:54:04.673Z,19.63
2023-05-14T16:56:32.589Z,16.80
2023-05-14T16:58:59.327Z,20.25
2023-05-14T17:01:26.427Z,14.10
2023-05-14T17:03:53.369Z,13.05
2023-05-14T17:06:20.270Z,17.52
2023-05-14T17:08:47.152Z,14.73
2023-05-14T17:11:14.020Z,15.48
2023-05-14T17:13:41.009Z,13.25
2023-05-14T17:16:07.994Z,13.23
2023-05-14T17:18:34.960Z,13.82
2023-05-14T17:21:01.962Z,13.43
2023-05-14T17:23:28.886Z,14.77
2023-05-14T17:25:56.837Z,13.00
2023-05-14T17:28:24.684Z,10.85
2023-05-14T17:30:51.581Z,15.93
2023-05-14T17:33:18.907Z,14.70
2023-05-14T17:35:46.078Z,10.73
2023-05-14T17:38:13.000Z,11.55
2023-05-14T17:40:41.056Z,20.95
2023-05-14T17:43:08.781Z,13.52
2023-05-14T17:45:46.379Z,10.82
2023-05-14T17:48:20.694Z,13.48
2023-05-14T17:50:47.583Z,11.32
2023-05-14T17:53:15.945Z,12.40
2023-05-14T17:55:43.971Z,15.18
2023-05-14T17:58:11.761Z,12.70
2023-05-14T18:00:38.667Z,12.52
2023-05-14T18:03:05.655Z,11.15
2023-05-14T18:05:32.652Z,15.00
2023-05-14T18:08:00.193Z,11.00
2023-05-14T18:10:27.172Z,11.45
2023-05-14T18:12:53.990Z,11.23
2023-05-14T18:15:20.876Z,15.38
2023-05-14T18:17:47.819Z,12.93
2023-05-14T18:20:14.756Z,11.05
2023-05-14T18:22:41.615Z,16.55
2023-05-14T18:25:09.810Z,10.45
2023-05-14T18:27:39.644Z,14.85
2023-05-14T18:30:07.606Z,21.05
2023-05-14T18:32:34.464Z,12.45
2023-05-14T18:35:01.393Z,14.38
2023-05-14T18:37:28.224Z,15.18
2023-05-14T18:39:55.183Z,13.07
2023-05-14T18:42:21.999Z,16.33
2023-05-14T18:44:48.952Z,15.63
2023-05-14T18:47:15.821Z,11.95
2023-05-14T18:49:42.689Z,9.40
2023-05-14T18:52:09.605Z,12.25
2023-05-14T18:54:36.500Z,11.95
2023-05-14T18:57:03.387Z,9.00
2023-05-14T18:59:30.257Z,10.10
2023-05-14T19:01:57.267Z,14.05
2023-05-14T19:04:25.033Z,13.73
2023-05-14T19:06:51.956Z,9.52
2023-05-14T19:09:21.311Z,10.57
2023-05-14T19:11:48.514Z,13.48
2023-05-14T19:14:15.360Z,13.40
2023-05-14T19:16:42.278Z,15.65
2023-05-14T19:19:09.220Z,10.52
2023-05-14T19:21:36.491Z,16.00
2023-05-14T19:24:03.497Z,11.05
2023-05-14T19:26:30.532Z,10.32
2023-05-14T19:28:58.854Z,13.23
2023-05-14T19:31:26.029Z,9.23
2023-05-14T19:33:53.499Z,8.45
2023-05-14T19:36:20.954Z,11.35
2023-05-14T19:38:48.313Z,10.82
2023-05-14T19:41:15.240Z,7.95
2023-05-14T19:43:42.081Z,10.68
2023-05-14T19:46:08.936Z,7.97
2023-05-14T19:48:35.814Z,7.90
2023-05-14T19:51:02.658Z,10.73
2023-05-14T19:53:32.283Z,13.10
2023-05-14T19:55:59.809Z,9.48
2023-05-14T19:58:26.710Z,10.20
2023-05-14T20:00:54.669Z,11.57
2023-05-14T20:03:26.272Z,11.90
2023-05-14T20:05:53.522Z,14.00
2023-05-14T20:08:20.871Z,13.18
2023-05-14T20:10:48.094Z,13.77
2023-05-14T20:13:15.053Z,11.80
2023-05-14T20:15:41.972Z,12.13
2023-05-14T20:18:09.030Z,14.18
2023-05-14T20:20:36.033Z,10.63
2023-05-14T20:23:02.794Z,14.18
2023-05-14T20:25:29.826Z,14.73
2023-05-14T20:27:56.965Z,11.25
2023-05-14T20:30:23.907Z,15.25
2023-05-14T20:32:51.426Z,13.13
2023-05-14T20:35:18.290Z,10.25
2023-05-14T20:37:45.142Z,10.13
2023-05-14T20:40:15.147Z,9.02
2023-05-14T20:42:41.945Z,10.15
2023-05-14T20:45:09.135Z,6.85
2023-05-14T20:47:35.970Z,9.30
2023-05-14T20:50:02.832Z,15.48
2023-05-14T20:52:29.674Z,8.52
2023-05-14T20:54:57.130Z,9.10
2023-05-14T20:57:25.031Z,9.00
2023-05-14T20:59:51.903Z,9.90
2023-05-14T21:02:18.780Z,5.88
2023-05-14T21:04:46.158Z,7.78
2023-05-14T21:07:12.930Z,5.35
2023-05-14T21:09:39.735Z,6.97
2023-05-14T21:12:06.724Z,10.25
2023-05-14T21:14:33.477Z,6.57
2023-05-14T21:17:00.385Z,5.93
2023-05-14T21:19:27.167Z,4.40
2023-05-14T21:21:53.947Z,6.90
2023-05-14T21:24:20.794Z,7.13
2023-05-14T21:26:47.644Z,6.35
2023-05-14T21:29:14.444Z,6.75
2023-05-14T21:31:41.268Z,7.00
2023-05-14T21:34:08.097Z,6.30
2023-05-14T21:36:34.986Z,5.60
2023-05-14T21:39:01.812Z,7.75
2023-05-14T21:41:28.591Z,6.55
2023-05-14T21:43:55.500Z,6.05
2023-05-14T21:46:22.298Z,8.00
2023-05-14T21:48:49.182Z,8.23
2023-05-14T21:51:16.042Z,8.13
2023-05-14T21:53:42.918Z,8.45
2023-05-14T21:56:09.668Z,7.72
2023-05-14T21:58:36.492Z,7.80
2023-05-14T22:01:05.314Z,11.00
2023-05-14T22:03:34.443Z,9.65
2023-05-14T22:06:01.800Z,10.23
2023-05-14T22:08:29.853Z,6.80
2023-05-14T22:10:56.677Z,10.00
2023-05-14T22:13:23.477Z,7.47
2023-05-14T22:15:58.129Z,7.43
2023-05-14T22:18:32.576Z,7.55
2023-05-14T22:20:59.396Z,9.95
2023-05-14T22:23:26.391Z,10.35
2023-05-14T22:25:53.200Z,6.65
2023-05-14T22:28:20.050Z,8.20
2023-05-14T22:30:46.842Z,7.82
2023-05-14T22:33:13.742Z,9.63
2023-05-14T22:35:41.129Z,9.07
2023-05-14T22:38:08.007Z,11.32
2023-05-14T22:40:34.784Z,10.82
2023-05-14T22:43:01.638Z,9.95
2023-05-14T22:45:28.360Z,8.65
2023-05-14T22:47:55.235Z,11.57
2023-05-14T22:50:22.148Z,11.43
2023-05-14T22:52:48.975Z,10.43
2023-05-14T22:55:15.748Z,9.43
2023-05-14T22:57:42.521Z,8.68
2023-05-14T23:00:11.295Z,9.32
2023-05-14T23:02:38.712Z,10.82
2023-05-14T23:05:06.190Z,9.20
2023-05-14T23:07:33.059Z,9.30
2023-05-14T23:09:59.877Z,8.68
2023-05-14T23:12:26.696Z,10.13
2023-05-14T23:14:53.463Z,8.85
2023-05-14T23:17:20.471Z,8.55
2023-05-14T23:19:47.460Z,7.93
2023-05-14T23:22:14.307Z,11.15
2023-05-14T23:24:41.130Z,8.40
2023-05-14T23:27:08.020Z,8.13
2023-05-14T23:29:34.845Z,7.93
2023-05-14T23:32:01.662Z,7.70
2023-05-14T23:34:28.500Z,6.63
2023-05-14T23:36:55.291Z,8.48
2023-05-14T23:39:22.048Z,10.20
2023-05-14T23:41:48.829Z,7.90
2023-05-14T23:44:15.601Z,8.32
2023-05-14T23:46:42.484Z,9.55
2023-05-14T23:49:09.340Z,6.78
2023-05-14T23:51:37.114Z,6.88
2023-05-14T23:54:03.969Z,8.13
2023-05-14T23:56:31.074Z,12.52
2023-05-14T23:58:57.867Z,10.57
